Terminal Aerodrome Forecast
Issued by NWS

Home | Current Version | Previous Version | Text Only | Print | Product List | Glossary On
Versions: 1 2 3 4 5 6 7 8 9 10 11 12 13 14
000
FTAK31 PAJN 231700
TAFASI
TAF
PASI 231720Z 2318/2418 30006KT P6SM VCSH BKN040 OVC060
     FM232000 30007KT P6SM SCT040 SCT060
     FM240400 33004KT P6SM FEW040 FEW200
     FM241100 09004KT P6SM SCT040 BKN120
     FM241700 09004KT P6SM VCSH BKN040 OVC100=

USA.gov is the U.S. government's official web portal to all federal, state and local government web resources and services.